createdAt,value
2023-01-13T00:02:06.649Z,2.10
2023-01-13T00:04:32.970Z,1.70
2023-01-13T00:06:59.630Z,1.90
2023-01-13T00:09:25.869Z,1.67
2023-01-13T00:11:52.379Z,1.43
2023-01-13T00:14:18.541Z,1.57
2023-01-13T00:16:45.008Z,1.40
2023-01-13T00:19:11.224Z,1.73
2023-01-13T00:21:37.773Z,1.40
2023-01-13T00:24:04.079Z,1.27
2023-01-13T00:26:32.970Z,1.50
2023-01-13T00:28:59.857Z,1.30
2023-01-13T00:31:27.823Z,1.70
2023-01-13T00:33:59.280Z,2.07
2023-01-13T00:36:26.500Z,1.70
2023-01-13T00:38:52.832Z,1.90
2023-01-13T00:41:21.432Z,1.73
2023-01-13T00:43:48.462Z,1.70
2023-01-13T00:46:17.599Z,1.60
2023-01-13T00:48:44.355Z,1.40
2023-01-13T00:51:12.191Z,1.70
2023-01-13T00:53:40.975Z,1.50
2023-01-13T00:56:10.688Z,1.30
2023-01-13T00:58:36.844Z,1.40
2023-01-13T01:01:07.125Z,1.60
2023-01-13T01:03:33.527Z,1.57
2023-01-13T01:06:07.216Z,2.43
2023-01-13T01:08:35.073Z,1.60
2023-01-13T01:11:08.003Z,1.50
2023-01-13T01:13:35.293Z,1.50
2023-01-13T01:16:07.557Z,1.60
2023-01-13T01:18:35.633Z,1.73
2023-01-13T01:21:03.078Z,1.40
2023-01-13T01:23:29.995Z,1.33
2023-01-13T01:26:07.144Z,1.70
2023-01-13T01:28:34.254Z,1.50
2023-01-13T01:31:06.650Z,1.60
2023-01-13T01:33:33.244Z,1.40
2023-01-13T01:36:00.966Z,1.50
2023-01-13T01:38:27.220Z,1.67
2023-01-13T01:40:53.789Z,1.37
2023-01-13T01:43:40.608Z,1.60
2023-01-13T01:46:07.181Z,1.60
2023-01-13T01:48:42.021Z,1.60
2023-01-13T01:51:12.412Z,1.70
2023-01-13T01:53:39.306Z,1.77
2023-01-13T01:56:08.570Z,1.60
2023-01-13T01:58:41.604Z,1.30
2023-01-13T02:01:08.808Z,1.70
2023-01-13T02:03:39.230Z,1.50
2023-01-13T02:06:05.947Z,1.50
2023-01-13T02:08:32.516Z,1.50
2023-01-13T02:10:59.122Z,1.57
2023-01-13T02:13:25.428Z,1.50
2023-01-13T02:15:58.071Z,1.53
2023-01-13T02:18:42.633Z,1.53
2023-01-13T02:21:19.647Z,1.77
2023-01-13T02:24:41.832Z,1.50
2023-01-13T02:27:33.417Z,1.23
2023-01-13T02:30:37.558Z,1.20
2023-01-13T02:33:13.027Z,1.23
2023-01-13T02:36:05.771Z,1.70
2023-01-13T02:38:51.971Z,1.40
2023-01-13T02:41:46.815Z,1.70
2023-01-13T02:44:19.047Z,1.40
2023-01-13T02:46:48.356Z,1.27
2023-01-13T02:49:23.155Z,1.27
2023-01-13T02:51:52.962Z,1.43
2023-01-13T02:54:27.733Z,1.20
2023-01-13T02:56:56.378Z,1.20
2023-01-13T02:59:25.899Z,1.50
2023-01-13T03:01:56.669Z,1.50
2023-01-13T03:04:42.003Z,1.30
2023-01-13T03:07:17.188Z,1.47
2023-01-13T03:09:54.620Z,1.13
2023-01-13T03:12:37.136Z,1.13
2023-01-13T03:15:16.584Z,1.10
2023-01-13T03:18:10.745Z,1.10
2023-01-13T03:20:46.899Z,1.30
2023-01-13T03:23:23.845Z,1.27
2023-01-13T03:26:17.058Z,1.30
2023-01-13T03:28:56.298Z,1.43
2023-01-13T03:31:27.632Z,1.30
2023-01-13T03:33:59.566Z,1.20
2023-01-13T03:36:28.446Z,1.13
2023-01-13T03:39:02.350Z,1.17
2023-01-13T03:41:42.402Z,1.17
2023-01-13T03:44:23.941Z,1.33
2023-01-13T03:47:01.434Z,1.60
2023-01-13T03:49:53.124Z,1.60
2023-01-13T03:52:27.480Z,1.70
2023-01-13T03:55:17.912Z,1.67
2023-01-13T03:57:59.168Z,1.60
2023-01-13T04:00:31.196Z,1.57
2023-01-13T04:03:06.762Z,1.47
2023-01-13T04:05:37.812Z,1.53
2023-01-13T04:08:21.608Z,1.30
2023-01-13T04:11:11.221Z,1.97
2023-01-13T04:13:40.797Z,2.00
2023-01-13T04:16:08.092Z,1.80
2023-01-13T04:18:37.778Z,2.23
2023-01-13T04:21:04.986Z,1.90
2023-01-13T04:23:32.013Z,1.70
2023-01-13T04:25:58.588Z,1.90
2023-01-13T04:28:25.872Z,1.37
2023-01-13T04:30:52.046Z,1.57
2023-01-13T04:33:19.557Z,1.73
2023-01-13T04:35:46.754Z,1.60
2023-01-13T04:38:15.383Z,2.27
2023-01-13T04:40:42.083Z,2.27
2023-01-13T04:43:09.057Z,1.60
2023-01-13T04:45:35.613Z,1.40
2023-01-13T04:48:02.224Z,2.00
2023-01-13T04:50:28.706Z,1.77
2023-01-13T04:52:55.685Z,1.47
2023-01-13T04:55:24.003Z,1.57
2023-01-13T04:57:51.575Z,1.70
2023-01-13T05:00:21.216Z,1.73
2023-01-13T05:02:51.988Z,2.10
2023-01-13T05:05:18.903Z,2.03
2023-01-13T05:07:45.799Z,2.00
2023-01-13T05:10:12.119Z,1.97
2023-01-13T05:12:57.281Z,1.80
2023-01-13T05:15:42.021Z,1.90
2023-01-13T05:18:08.809Z,1.93
2023-01-13T05:20:35.035Z,1.50
2023-01-13T05:23:20.103Z,1.70
2023-01-13T05:25:47.967Z,1.70
2023-01-13T05:28:15.279Z,1.57
2023-01-13T05:30:45.236Z,1.93
2023-01-13T05:33:17.680Z,1.80
2023-01-13T05:35:45.378Z,1.90
2023-01-13T05:38:12.798Z,2.20
2023-01-13T05:40:59.544Z,1.83
2023-01-13T05:43:26.911Z,1.90
2023-01-13T05:46:01.269Z,1.47
2023-01-13T05:48:36.280Z,1.53
2023-01-13T05:51:04.850Z,1.73
2023-01-13T05:53:31.995Z,1.80
2023-01-13T05:55:58.296Z,1.60
2023-01-13T05:58:27.237Z,1.70
2023-01-13T06:00:59.519Z,1.70
2023-01-13T06:03:26.391Z,1.40
2023-01-13T06:05:57.882Z,1.60
2023-01-13T06:08:27.528Z,1.60
2023-01-13T06:10:53.859Z,1.37
2023-01-13T06:13:20.552Z,1.50
2023-01-13T06:15:46.780Z,1.50
2023-01-13T06:18:13.345Z,1.67
2023-01-13T06:20:39.523Z,1.60
2023-01-13T06:23:08.899Z,1.80
2023-01-13T06:25:49.198Z,2.00
2023-01-13T06:28:15.971Z,1.67
2023-01-13T06:30:50.266Z,1.90
2023-01-13T06:33:26.451Z,1.23
2023-01-13T06:35:57.649Z,1.60
2023-01-13T06:38:26.819Z,1.20
2023-01-13T06:40:54.078Z,1.40
2023-01-13T06:43:21.011Z,1.57
2023-01-13T06:45:53.598Z,1.30
2023-01-13T06:48:23.750Z,1.57
2023-01-13T06:50:50.098Z,1.13
2023-01-13T06:53:16.519Z,1.00
2023-01-13T06:55:42.686Z,1.30
2023-01-13T06:58:09.376Z,1.30
2023-01-13T07:00:36.444Z,1.13
2023-01-13T07:03:14.761Z,1.47
2023-01-13T07:05:43.248Z,1.13
2023-01-13T07:08:10.288Z,1.30
2023-01-13T07:10:37.564Z,1.60
2023-01-13T07:13:23.868Z,1.00
2023-01-13T07:16:01.680Z,1.23
2023-01-13T07:18:31.012Z,1.40
2023-01-13T07:20:59.415Z,1.30
2023-01-13T07:23:31.295Z,1.50
2023-01-13T07:25:58.646Z,1.50
2023-01-13T07:28:26.834Z,1.90
2023-01-13T07:30:53.557Z,1.57
2023-01-13T07:33:20.196Z,1.77
2023-01-13T07:35:47.402Z,1.73
2023-01-13T07:38:14.926Z,1.70
2023-01-13T07:40:41.747Z,2.20
2023-01-13T07:43:30.412Z,2.70
2023-01-13T07:46:04.370Z,1.90
2023-01-13T07:48:33.749Z,2.03
2023-01-13T07:51:05.399Z,2.00
2023-01-13T07:53:32.950Z,2.23
2023-01-13T07:56:00.073Z,2.63
2023-01-13T07:58:27.616Z,2.80
2023-01-13T08:00:54.772Z,3.00
2023-01-13T08:03:22.557Z,3.00
2023-01-13T08:05:49.290Z,2.50
2023-01-13T08:08:16.378Z,2.67
2023-01-13T08:10:42.587Z,2.70
2023-01-13T08:13:17.469Z,2.90
2023-01-13T08:15:44.884Z,2.70
2023-01-13T08:18:11.662Z,2.97
2023-01-13T08:20:38.077Z,3.43
2023-01-13T08:23:07.126Z,2.77
2023-01-13T08:25:34.314Z,2.70
2023-01-13T08:28:01.100Z,1.87
2023-01-13T08:30:27.899Z,2.20
2023-01-13T08:32:54.921Z,1.93
2023-01-13T08:35:21.561Z,1.67
2023-01-13T08:37:49.377Z,1.73
2023-01-13T08:40:17.269Z,1.77
2023-01-13T08:42:43.979Z,1.43
2023-01-13T08:45:13.098Z,2.00
2023-01-13T08:47:40.131Z,1.90
2023-01-13T08:50:07.525Z,2.13
2023-01-13T08:52:34.092Z,2.37
2023-01-13T08:55:00.308Z,1.90
2023-01-13T08:57:26.856Z,1.97
2023-01-13T08:59:53.503Z,1.90
2023-01-13T09:02:22.258Z,2.07
2023-01-13T09:04:49.551Z,2.03
2023-01-13T09:07:17.396Z,1.87
2023-01-13T09:09:43.979Z,2.40
2023-01-13T09:12:31.560Z,1.90
2023-01-13T09:14:57.831Z,2.30
2023-01-13T09:17:24.849Z,2.37
2023-01-13T09:19:51.437Z,2.30
2023-01-13T09:22:18.815Z,2.27
2023-01-13T09:24:45.507Z,2.50
2023-01-13T09:27:14.826Z,2.63
2023-01-13T09:29:41.018Z,2.40
2023-01-13T09:32:11.663Z,2.30
2023-01-13T09:34:56.649Z,2.20
2023-01-13T09:37:23.307Z,2.60
2023-01-13T09:39:49.694Z,2.57
2023-01-13T09:42:53.693Z,2.53
2023-01-13T09:45:25.589Z,2.47
2023-01-13T09:48:09.651Z,2.63
2023-01-13T09:51:06.262Z,2.57
2023-01-13T09:53:38.818Z,2.70
2023-01-13T09:56:06.087Z,2.27
2023-01-13T09:58:32.497Z,2.73
2023-01-13T10:01:22.381Z,2.13
2023-01-13T10:03:49.239Z,2.23
2023-01-13T10:06:30.901Z,2.77
2023-01-13T10:08:57.610Z,1.90
2023-01-13T10:11:47.956Z,2.17
2023-01-13T10:14:36.935Z,1.97
2023-01-13T10:17:29.410Z,2.10
2023-01-13T10:20:17.862Z,1.70
2023-01-13T10:22:51.117Z,2.07
2023-01-13T10:25:27.514Z,2.60
2023-01-13T10:27:55.792Z,2.30
2023-01-13T10:30:32.112Z,2.40
2023-01-13T10:33:00.853Z,2.30
2023-01-13T10:35:49.313Z,2.50
2023-01-13T10:38:35.027Z,1.73
2023-01-13T10:41:03.578Z,1.90
2023-01-13T10:43:30.457Z,2.57
2023-01-13T10:46:04.934Z,2.13
2023-01-13T10:48:37.520Z,1.97
2023-01-13T10:51:27.307Z,1.70
2023-01-13T10:54:02.382Z,1.73
2023-01-13T10:56:31.954Z,1.93
2023-01-13T10:59:23.353Z,2.00
2023-01-13T11:02:25.209Z,2.60
2023-01-13T11:05:02.400Z,2.40
2023-01-13T11:07:39.615Z,2.40
2023-01-13T11:10:08.822Z,2.00
2023-01-13T11:13:01.742Z,2.30
2023-01-13T11:15:38.987Z,2.57
2023-01-13T11:19:12.738Z,3.33
2023-01-13T11:22:08.986Z,4.40
2023-01-13T11:24:41.926Z,3.10
2023-01-13T11:27:21.274Z,3.17
2023-01-13T11:30:12.855Z,3.87
2023-01-13T11:32:53.153Z,3.07
2023-01-13T11:35:21.104Z,3.83
2023-01-13T11:37:53.158Z,3.60
2023-01-13T11:40:50.120Z,5.07
2023-01-13T11:43:28.618Z,3.70
2023-01-13T11:45:57.548Z,3.00
2023-01-13T11:48:28.868Z,2.43
2023-01-13T11:51:15.419Z,2.83
2023-01-13T11:54:03.413Z,3.17
2023-01-13T11:56:48.652Z,2.80
2023-01-13T11:59:43.192Z,3.20
2023-01-13T12:02:25.014Z,3.23
2023-01-13T12:05:12.746Z,3.40
2023-01-13T12:07:54.912Z,3.50
2023-01-13T12:10:46.379Z,2.83
2023-01-13T12:13:41.049Z,3.37
2023-01-13T12:16:25.060Z,3.70
2023-01-13T12:19:07.058Z,4.00
2023-01-13T12:21:35.505Z,4.07
2023-01-13T12:24:12.478Z,3.03
2023-01-13T12:26:44.181Z,2.53
2023-01-13T12:29:20.395Z,3.00
2023-01-13T12:31:48.639Z,2.80
2023-01-13T12:34:27.205Z,2.83
2023-01-13T12:37:12.385Z,2.60
2023-01-13T12:39:42.149Z,2.83
2023-01-13T12:42:36.426Z,2.83
2023-01-13T12:45:07.835Z,3.20
2023-01-13T12:47:45.653Z,2.70
2023-01-13T12:50:21.571Z,2.37
2023-01-13T12:53:14.758Z,1.90
2023-01-13T12:55:41.849Z,3.23
2023-01-13T12:58:08.292Z,0.90
2023-01-13T13:00:39.784Z,1.00
2023-01-13T13:03:13.108Z,1.13
2023-01-13T13:05:56.137Z,1.00
2023-01-13T13:08:44.498Z,1.20
2023-01-13T13:11:32.901Z,1.40
2023-01-13T13:14:00.677Z,1.23
2023-01-13T13:16:28.698Z,1.53
2023-01-13T13:19:18.769Z,1.87
2023-01-13T13:22:13.638Z,2.50
2023-01-13T13:24:42.421Z,2.90
2023-01-13T13:27:21.347Z,3.20
2023-01-13T13:30:28.066Z,3.07
2023-01-13T13:33:12.900Z,2.50
2023-01-13T13:36:07.534Z,2.33
2023-01-13T13:39:20.505Z,2.47
2023-01-13T13:42:10.094Z,2.13
2023-01-13T13:44:58.620Z,2.60
2023-01-13T13:47:25.311Z,2.57
2023-01-13T13:49:53.896Z,3.43
2023-01-13T13:52:36.297Z,3.87
2023-01-13T13:55:18.434Z,4.20
2023-01-13T13:57:50.895Z,3.57
2023-01-13T14:00:27.111Z,4.83
2023-01-13T14:02:57.728Z,5.30
2023-01-13T14:05:27.600Z,6.60
2023-01-13T14:08:13.623Z,5.77
2023-01-13T14:10:42.432Z,4.70
2023-01-13T14:13:25.447Z,4.97
2023-01-13T14:15:59.910Z,4.90
2023-01-13T14:18:28.424Z,3.83
2023-01-13T14:20:59.405Z,3.83
2023-01-13T14:23:29.190Z,4.60
2023-01-13T14:26:07.103Z,3.90
2023-01-13T14:28:36.661Z,4.53
2023-01-13T14:31:05.190Z,3.90
2023-01-13T14:33:34.265Z,4.63
2023-01-13T14:36:23.936Z,3.83
2023-01-13T14:39:14.238Z,3.33
2023-01-13T14:41:40.979Z,2.43
2023-01-13T14:44:34.220Z,2.27
2023-01-13T14:47:19.443Z,2.07
2023-01-13T14:50:15.692Z,1.83
2023-01-13T14:52:54.981Z,1.80
2023-01-13T14:55:23.153Z,1.40
2023-01-13T14:57:49.850Z,1.40
2023-01-13T15:00:17.851Z,1.50
2023-01-13T15:02:56.648Z,1.40
2023-01-13T15:05:30.155Z,1.50
2023-01-13T15:08:05.413Z,1.30
2023-01-13T15:10:36.490Z,1.37
2023-01-13T15:13:05.501Z,1.20
2023-01-13T15:15:37.361Z,0.93
2023-01-13T15:18:13.137Z,0.90
2023-01-13T15:20:40.704Z,1.07
2023-01-13T15:23:07.531Z,1.23
2023-01-13T15:25:36.186Z,1.40
2023-01-13T15:28:04.197Z,1.47
2023-01-13T15:30:30.929Z,1.23
2023-01-13T15:32:58.310Z,1.30
2023-01-13T15:35:27.333Z,1.60
2023-01-13T15:37:57.090Z,1.63
2023-01-13T15:40:31.785Z,1.77
2023-01-13T15:43:16.811Z,2.03
2023-01-13T15:46:02.231Z,1.90
2023-01-13T15:48:31.395Z,1.63
2023-01-13T15:50:58.530Z,2.07
2023-01-13T15:53:25.615Z,1.87
2023-01-13T15:55:55.975Z,1.67
2023-01-13T15:58:28.385Z,1.63
2023-01-13T16:00:55.235Z,1.53
2023-01-13T16:03:22.258Z,1.53
2023-01-13T16:05:49.107Z,1.57
2023-01-13T16:08:21.038Z,1.63
2023-01-13T16:10:48.247Z,1.53
2023-01-13T16:13:16.138Z,1.53
2023-01-13T16:15:49.351Z,1.50
2023-01-13T16:18:23.038Z,1.60
2023-01-13T16:20:52.879Z,1.53
2023-01-13T16:23:20.038Z,1.77
2023-01-13T16:25:46.928Z,1.93
2023-01-13T16:28:25.914Z,1.80
2023-01-13T16:30:52.222Z,1.97
2023-01-13T16:33:18.643Z,1.63
2023-01-13T16:36:09.944Z,2.07
2023-01-13T16:38:31.264Z,2.10
2023-01-13T16:40:57.661Z,1.83
2023-01-13T16:43:24.147Z,2.37
2023-01-13T16:45:50.668Z,2.33
2023-01-13T16:48:19.710Z,2.90
2023-01-13T16:50:46.410Z,2.47
2023-01-13T16:53:13.142Z,2.53
2023-01-13T16:55:41.105Z,3.17
2023-01-13T16:58:19.732Z,3.50
2023-01-13T17:00:47.152Z,3.87
2023-01-13T17:03:14.686Z,4.40
2023-01-13T17:05:42.783Z,4.63
2023-01-13T17:08:19.577Z,4.87
2023-01-13T17:10:47.105Z,5.13
2023-01-13T17:13:16.646Z,4.27
2023-01-13T17:15:45.038Z,4.27
2023-01-13T17:18:12.683Z,4.60
2023-01-13T17:20:41.665Z,4.30
2023-01-13T17:23:08.427Z,5.77
2023-01-13T17:25:37.164Z,4.83
2023-01-13T17:28:03.964Z,5.23
2023-01-13T17:30:30.222Z,6.40
2023-01-13T17:32:56.777Z,6.57
2023-01-13T17:35:24.101Z,6.73
2023-01-13T17:37:52.131Z,7.87
2023-01-13T17:40:18.905Z,7.70
2023-01-13T17:42:45.442Z,7.53
2023-01-13T17:45:12.173Z,8.03
2023-01-13T17:47:39.134Z,9.30
2023-01-13T17:50:06.224Z,10.23
2023-01-13T17:52:34.282Z,9.20
2023-01-13T17:55:00.642Z,9.20
2023-01-13T17:57:28.186Z,8.43
2023-01-13T17:59:54.585Z,8.87
2023-01-13T18:02:21.604Z,8.33
2023-01-13T18:04:48.206Z,7.83
2023-01-13T18:07:15.975Z,7.50
2023-01-13T18:09:42.302Z,7.90
2023-01-13T18:12:10.070Z,6.20
2023-01-13T18:14:36.956Z,6.80
2023-01-13T18:17:04.324Z,6.07
2023-01-13T18:19:49.607Z,5.80
2023-01-13T18:22:35.162Z,5.00
2023-01-13T18:25:21.837Z,6.10
2023-01-13T18:27:48.640Z,5.70
2023-01-13T18:30:16.744Z,6.77
2023-01-13T18:32:43.544Z,7.53
2023-01-13T18:35:10.233Z,7.20
2023-01-13T18:37:39.610Z,5.60
2023-01-13T18:40:08.555Z,5.40
2023-01-13T18:42:51.614Z,5.10
2023-01-13T18:45:29.308Z,5.77
2023-01-13T18:47:58.797Z,7.60
2023-01-13T18:50:26.456Z,6.03
2023-01-13T18:52:53.709Z,6.50
2023-01-13T18:55:20.810Z,5.87
2023-01-13T18:57:47.525Z,6.90
2023-01-13T19:00:17.283Z,6.93
2023-01-13T19:02:44.526Z,6.43
2023-01-13T19:05:11.218Z,5.67
2023-01-13T19:07:45.223Z,5.80
2023-01-13T19:10:12.562Z,6.23
2023-01-13T19:12:39.467Z,7.00
2023-01-13T19:15:06.892Z,8.27
2023-01-13T19:17:35.656Z,8.73
2023-01-13T19:20:05.074Z,9.07
2023-01-13T19:22:35.034Z,8.87
2023-01-13T19:25:05.006Z,7.10
2023-01-13T19:27:32.118Z,6.63
2023-01-13T19:29:59.780Z,7.07
2023-01-13T19:32:27.565Z,7.60
2023-01-13T19:34:55.844Z,7.67
2023-01-13T19:37:22.709Z,8.47
2023-01-13T19:39:52.096Z,7.47
2023-01-13T19:42:37.297Z,5.90
2023-01-13T19:45:22.639Z,5.47
2023-01-13T19:47:49.367Z,5.50
2023-01-13T19:50:16.032Z,6.13
2023-01-13T19:52:43.374Z,5.63
2023-01-13T19:55:11.859Z,5.80
2023-01-13T19:57:39.599Z,6.33
2023-01-13T20:00:07.462Z,6.00
2023-01-13T20:02:44.170Z,4.33
2023-01-13T20:05:12.189Z,4.87
2023-01-13T20:07:39.044Z,5.00
2023-01-13T20:10:06.247Z,4.03
2023-01-13T20:12:32.968Z,3.77
2023-01-13T20:14:59.693Z,3.87
2023-01-13T20:17:26.816Z,3.33
2023-01-13T20:19:53.837Z,2.73
2023-01-13T20:22:22.742Z,2.43
2023-01-13T20:24:54.390Z,2.00
2023-01-13T20:27:23.172Z,2.57
2023-01-13T20:29:53.036Z,2.07
2023-01-13T20:32:19.906Z,4.00
2023-01-13T20:34:46.725Z,2.90
2023-01-13T20:37:13.436Z,2.40
2023-01-13T20:39:43.883Z,2.40
2023-01-13T20:42:28.960Z,2.63
2023-01-13T20:44:59.750Z,2.07
2023-01-13T20:47:28.708Z,2.37
2023-01-13T20:49:55.319Z,2.23
2023-01-13T20:52:22.677Z,2.37
2023-01-13T20:54:49.050Z,2.10
2023-01-13T20:57:15.768Z,2.00
2023-01-13T20:59:42.973Z,1.70
2023-01-13T21:02:15.218Z,1.83
2023-01-13T21:04:42.579Z,1.53
2023-01-13T21:07:10.001Z,1.60
2023-01-13T21:09:36.613Z,1.60
2023-01-13T21:12:24.424Z,1.43
2023-01-13T21:15:09.740Z,1.47
2023-01-13T21:17:55.077Z,1.43
2023-01-13T21:20:21.533Z,2.00
2023-01-13T21:22:48.829Z,1.80
2023-01-13T21:25:17.459Z,2.00
2023-01-13T21:27:44.234Z,1.80
2023-01-13T21:30:14.219Z,2.43
2023-01-13T21:32:42.690Z,2.53
2023-01-13T21:35:11.172Z,3.13
2023-01-13T21:37:39.157Z,1.90
2023-01-13T21:40:07.505Z,2.27
2023-01-13T21:42:52.661Z,1.73
2023-01-13T21:45:37.645Z,1.90
2023-01-13T21:48:04.466Z,1.97
2023-01-13T21:50:31.136Z,2.50
2023-01-13T21:52:58.107Z,2.90
2023-01-13T21:55:28.763Z,2.43
2023-01-13T21:57:58.264Z,2.00
2023-01-13T22:00:27.155Z,2.13
2023-01-13T22:02:56.215Z,1.93
2023-01-13T22:05:24.077Z,2.30
2023-01-13T22:07:51.306Z,2.40
2023-01-13T22:10:20.838Z,2.80
2023-01-13T22:12:47.481Z,2.03
2023-01-13T22:15:15.632Z,2.50
2023-01-13T22:17:42.595Z,2.23
2023-01-13T22:20:10.103Z,2.23
2023-01-13T22:22:36.856Z,2.70
2023-01-13T22:25:06.276Z,2.03
2023-01-13T22:27:40.019Z,2.20
2023-01-13T22:30:10.296Z,1.87
2023-01-13T22:32:37.871Z,1.97
2023-01-13T22:35:06.195Z,1.90
2023-01-13T22:37:33.961Z,2.10
2023-01-13T22:40:00.315Z,1.60
2023-01-13T22:42:26.761Z,1.60
2023-01-13T22:44:52.991Z,2.33
2023-01-13T22:47:19.468Z,2.07
2023-01-13T22:49:48.528Z,1.80
2023-01-13T22:52:16.066Z,2.00
2023-01-13T22:54:42.442Z,2.30
2023-01-13T22:57:09.130Z,2.27
2023-01-13T22:59:35.374Z,1.70
2023-01-13T23:02:01.852Z,2.00
2023-01-13T23:04:28.761Z,2.00
2023-01-13T23:06:55.352Z,2.10
2023-01-13T23:09:21.546Z,1.53
2023-01-13T23:11:48.039Z,1.90
2023-01-13T23:14:15.422Z,2.00
2023-01-13T23:16:42.089Z,2.20
2023-01-13T23:19:09.985Z,2.27
2023-01-13T23:21:37.479Z,2.40
2023-01-13T23:24:04.796Z,2.10
2023-01-13T23:26:32.560Z,1.77
2023-01-13T23:29:01.004Z,1.80
2023-01-13T23:31:27.782Z,2.10
2023-01-13T23:33:53.983Z,2.13
2023-01-13T23:36:23.142Z,1.80
2023-01-13T23:38:50.002Z,2.23
2023-01-13T23:41:19.366Z,2.33
2023-01-13T23:43:57.899Z,2.20
2023-01-13T23:46:25.092Z,2.47
2023-01-13T23:48:51.559Z,2.47
2023-01-13T23:51:20.529Z,1.97
2023-01-13T23:53:48.052Z,1.80
2023-01-13T23:56:17.373Z,1.93
2023-01-13T23:58:44.092Z,2.00
